Aérodrome :
LOGIN :

S'inscrire | Disclaimer

   EN    FR    IT 

 










Légende :    VFR   VFR Marginal   IFR   IFR Intensif   IFR Très Intensif
Visi : 
Plafond : 
>= 8 km
>= 3000ft
5 à 8 km
1000 à 3000 ft
1500m à 5 km
500 à 1000 ft
800 à 1500m
200 à 500 ft
< 800m
< 200 ft
Symboles :   Orages  Brouillard  Fortes neiges  Fortes précipitations  Vent > 20 kt
SIGMETs :   Divers  Orages  Givrage  Turbulence  Onde Orograph.  Cendres Volcan.







- Altitude de l'aérodrome : 291 ft
- Code IATA : ORY
- Voir les cartes d'approche


LFPO - Paris-Orly

DERNIER METAR :
  • 210430Z 31004KT 9999 OVC025 07/03 Q1014 NOSIG

METARs EXPIRÉS :
  • 210400Z 33006KT 9999 OVC026 07/03 Q1014 NOSIG
  • 210330Z 34007KT 9999 OVC026 07/03 Q1014 NOSIG
  • 210300Z 34006KT 9999 BKN020 OVC023 07/03 Q1013 NOSIG
  • 210230Z 35008KT 320V020 9999 SCT018 OVC023 07/04 Q1012 NOSIG
  • 210200Z 32008KT 9999 OVC017 08/05 Q1012 NOSIG

TAF TAF LFPO
Valide du 21 à 00h jusqu'au 22 à 06h UTC


202300Z 2100/2206 32012G22KT 9999 BKN020
PROB30
TEMPO 2100/2106 BKN008
BECMG 2106/2109 VRB03KT -RA BKN014
BECMG 2109/2112 15006KT BKN008
TEMPO 2113/2120 3000 RA
BECMG 2120/2122 24010KT BKN012
ATIS : +33 1 49 75 65 80
Pas de NOTAMs connus pour ce terrain.



MET'MAP, la Météo Aéronautique d'un coup d'oeil ! - Copyright ORBIFLY Décembre 2007 - Disclaimer

ORBIFLY MET'MAP TEAM :

Programmation & Développement : Alexandra Zaïnal
Conception & Développement : Baudouin d'Aumeries
Co-Programmation & Développement : Marc-Olivier Méhu
Soutien technique & logistique : Manuel Goepfert

Contact : metmap@orbifly.com




SOURCES & CREDITS :

   NOAA